sensor_id;sensor_type;location;lat;lon;timestamp;pressure;altitude;pressure_sealevel;temperature
65765;BMP180;52915;53.718;19.946;2023-02-22T00:01:40;100229.80;;;3.50
65765;BMP180;52915;53.718;19.946;2023-02-22T00:07:15;100231.80;;;3.60
65765;BMP180;52915;53.718;19.946;2023-02-22T00:12:19;100242.80;;;3.62
65765;BMP180;52915;53.718;19.946;2023-02-22T00:31:44;100268.60;;;3.20
65765;BMP180;52915;53.718;19.946;2023-02-22T00:37:14;100275.20;;;3.38
65765;BMP180;52915;53.718;19.946;2023-02-22T00:42:18;100275.40;;;3.50
65765;BMP180;52915;53.718;19.946;2023-02-22T00:47:21;100286.20;;;3.70
65765;BMP180;52915;53.718;19.946;2023-02-22T00:52:26;100290.00;;;3.60
65765;BMP180;52915;53.718;19.946;2023-02-22T00:57:30;100300.60;;;3.40
65765;BMP180;52915;53.718;19.946;2023-02-22T01:09:03;100307.00;;;3.50
65765;BMP180;52915;53.718;19.946;2023-02-22T01:14:07;100306.40;;;3.50
65765;BMP180;52915;53.718;19.946;2023-02-22T01:19:12;100312.40;;;3.30
65765;BMP180;52915;53.718;19.946;2023-02-22T01:24:17;100322.20;;;3.20
65765;BMP180;52915;53.718;19.946;2023-02-22T01:29:21;100325.80;;;3.30
65765;BMP180;52915;53.718;19.946;2023-02-22T01:34:25;100340.40;;;3.40
65765;BMP180;52915;53.718;19.946;2023-02-22T01:46:35;100347.20;;;3.14
65765;BMP180;52915;53.718;19.946;2023-02-22T02:14:04;100361.60;;;2.90
65765;BMP180;52915;53.718;19.946;2023-02-22T02:29:56;100366.20;;;2.52
65765;BMP180;52915;53.718;19.946;2023-02-22T02:49:19;100376.40;;;2.50
65765;BMP180;52915;53.718;19.946;2023-02-22T03:40:53;100431.40;;;2.30
65765;BMP180;52915;53.718;19.946;2023-02-22T03:52:21;100443.40;;;2.00
65765;BMP180;52915;53.718;19.946;2023-02-22T03:57:35;100449.00;;;2.00
65765;BMP180;52915;53.718;19.946;2023-02-22T04:02:40;100448.60;;;2.04
65765;BMP180;52915;53.718;19.946;2023-02-22T04:07:45;100449.80;;;2.10
65765;BMP180;52915;53.718;19.946;2023-02-22T04:12:49;100457.20;;;2.12
65765;BMP180;52915;53.718;19.946;2023-02-22T04:17:53;100462.40;;;2.20
65765;BMP180;52915;53.718;19.946;2023-02-22T04:22:57;100466.20;;;2.20
65765;BMP180;52915;53.718;19.946;2023-02-22T04:28:19;100475.80;;;2.20
65765;BMP180;52915;53.718;19.946;2023-02-22T04:42:46;100484.40;;;2.16
65765;BMP180;52915;53.718;19.946;2023-02-22T05:01:36;100491.40;;;1.90
65765;BMP180;52915;53.718;19.946;2023-02-22T05:06:42;100497.20;;;1.90
65765;BMP180;52915;53.718;19.946;2023-02-22T05:18:51;100501.00;;;2.00
65765;BMP180;52915;53.718;19.946;2023-02-22T05:47:10;100526.40;;;1.80
65765;BMP180;52915;53.718;19.946;2023-02-22T05:52:46;100527.40;;;1.80
65765;BMP180;52915;53.718;19.946;2023-02-22T05:58:17;100534.00;;;1.80
65765;BMP180;52915;53.718;19.946;2023-02-22T06:10:24;100528.20;;;1.70
65765;BMP180;52915;53.718;19.946;2023-02-22T06:23:40;100528.80;;;1.70
65765;BMP180;52915;53.718;19.946;2023-02-22T06:28:45;100530.40;;;1.60
65765;BMP180;52915;53.718;19.946;2023-02-22T06:40:09;100542.60;;;1.88
65765;BMP180;52915;53.718;19.946;2023-02-22T06:51:39;100555.20;;;1.90
65765;BMP180;52915;53.718;19.946;2023-02-22T06:57:33;100554.40;;;2.00
65765;BMP180;52915;53.718;19.946;2023-02-22T07:02:56;100570.60;;;1.90
65765;BMP180;52915;53.718;19.946;2023-02-22T07:37:37;100607.20;;;1.90
65765;BMP180;52915;53.718;19.946;2023-02-22T07:43:35;100613.00;;;1.90
65765;BMP180;52915;53.718;19.946;2023-02-22T07:48:39;100614.20;;;1.90
65765;BMP180;52915;53.718;19.946;2023-02-22T07:54:34;100620.40;;;2.10
65765;BMP180;52915;53.718;19.946;2023-02-22T07:59:37;100627.60;;;2.20
65765;BMP180;52915;53.718;19.946;2023-02-22T08:04:41;100635.00;;;2.10
65765;BMP180;52915;53.718;19.946;2023-02-22T08:09:45;100634.20;;;2.10
65765;BMP180;52915;53.718;19.946;2023-02-22T08:21:35;100644.60;;;2.18
65765;BMP180;52915;53.718;19.946;2023-02-22T08:34:18;100649.80;;;2.50
65765;BMP180;52915;53.718;19.946;2023-02-22T08:39:22;100652.20;;;2.38
65765;BMP180;52915;53.718;19.946;2023-02-22T08:51:16;100659.40;;;2.30
65765;BMP180;52915;53.718;19.946;2023-02-22T08:56:20;100656.80;;;2.40
65765;BMP180;52915;53.718;19.946;2023-02-22T09:01:35;100658.20;;;2.50
65765;BMP180;52915;53.718;19.946;2023-02-22T09:14:58;100663.80;;;2.60
65765;BMP180;52915;53.718;19.946;2023-02-22T09:20:58;100670.00;;;2.70
65765;BMP180;52915;53.718;19.946;2023-02-22T09:42:55;100686.60;;;3.12
65765;BMP180;52915;53.718;19.946;2023-02-22T10:08:44;100685.00;;;3.64
65765;BMP180;52915;53.718;19.946;2023-02-22T10:26:28;100694.60;;;3.70
65765;BMP180;52915;53.718;19.946;2023-02-22T10:40:10;100692.20;;;3.70
65765;BMP180;52915;53.718;19.946;2023-02-22T10:59:57;100696.40;;;3.70
65765;BMP180;52915;53.718;19.946;2023-02-22T11:12:20;100692.60;;;3.90
65765;BMP180;52915;53.718;19.946;2023-02-22T11:17:33;100695.20;;;3.80
65765;BMP180;52915;53.718;19.946;2023-02-22T11:22:41;100697.20;;;3.90
65765;BMP180;52915;53.718;19.946;2023-02-22T11:27:45;100696.80;;;4.00
65765;BMP180;52915;53.718;19.946;2023-02-22T11:32:55;100698.20;;;4.02
65765;BMP180;52915;53.718;19.946;2023-02-22T11:38:26;100698.20;;;4.10
65765;BMP180;52915;53.718;19.946;2023-02-22T11:43:31;100705.80;;;4.08
65765;BMP180;52915;53.718;19.946;2023-02-22T11:48:44;100704.80;;;4.00
65765;BMP180;52915;53.718;19.946;2023-02-22T12:00:04;100711.00;;;4.00
65765;BMP180;52915;53.718;19.946;2023-02-22T12:05:24;100713.80;;;4.10
65765;BMP180;52915;53.718;19.946;2023-02-22T12:16:23;100717.20;;;4.06
65765;BMP180;52915;53.718;19.946;2023-02-22T12:21:38;100718.00;;;4.00
65765;BMP180;52915;53.718;19.946;2023-02-22T12:26:49;100720.40;;;3.90
65765;BMP180;52915;53.718;19.946;2023-02-22T12:32:54;100723.20;;;3.80
65765;BMP180;52915;53.718;19.946;2023-02-22T12:38:39;100724.80;;;3.90
65765;BMP180;52915;53.718;19.946;2023-02-22T12:43:54;100727.00;;;3.80
65765;BMP180;52915;53.718;19.946;2023-02-22T12:54:50;100726.80;;;3.70
65765;BMP180;52915;53.718;19.946;2023-02-22T12:59:58;100720.40;;;3.72
65765;BMP180;52915;53.718;19.946;2023-02-22T13:05:05;100715.20;;;3.90
65765;BMP180;52915;53.718;19.946;2023-02-22T13:39:56;100735.40;;;4.20
65765;BMP180;52915;53.718;19.946;2023-02-22T13:52:05;100735.60;;;4.10
65765;BMP180;52915;53.718;19.946;2023-02-22T14:04:39;100744.80;;;3.90
65765;BMP180;52915;53.718;19.946;2023-02-22T14:09:53;100742.80;;;3.80
65765;BMP180;52915;53.718;19.946;2023-02-22T14:20:37;100749.20;;;3.60
65765;BMP180;52915;53.718;19.946;2023-02-22T14:25:44;100753.20;;;3.60
65765;BMP180;52915;53.718;19.946;2023-02-22T14:42:46;100749.60;;;3.30
65765;BMP180;52915;53.718;19.946;2023-02-22T14:47:57;100749.60;;;3.28
65765;BMP180;52915;53.718;19.946;2023-02-22T14:53:39;100749.60;;;3.30
65765;BMP180;52915;53.718;19.946;2023-02-22T14:59:12;100746.60;;;3.30
65765;BMP180;52915;53.718;19.946;2023-02-22T15:04:29;100754.40;;;3.20
65765;BMP180;52915;53.718;19.946;2023-02-22T15:09:34;100750.40;;;3.20
65765;BMP180;52915;53.718;19.946;2023-02-22T15:14:40;100755.20;;;3.30
65765;BMP180;52915;53.718;19.946;2023-02-22T15:19:48;100755.60;;;3.38
65765;BMP180;52915;53.718;19.946;2023-02-22T15:25:06;100756.00;;;3.30
65765;BMP180;52915;53.718;19.946;2023-02-22T15:30:24;100754.20;;;3.20
65765;BMP180;52915;53.718;19.946;2023-02-22T15:35:32;100755.00;;;3.10
65765;BMP180;52915;53.718;19.946;2023-02-22T15:40:38;100760.80;;;2.90
65765;BMP180;52915;53.718;19.946;2023-02-22T15:45:46;100759.40;;;2.80
65765;BMP180;52915;53.718;19.946;2023-02-22T15:51:12;100763.40;;;2.70
65765;BMP180;52915;53.718;19.946;2023-02-22T15:56:28;100765.20;;;2.70
65765;BMP180;52915;53.718;19.946;2023-02-22T16:01:45;100770.60;;;2.64
65765;BMP180;52915;53.718;19.946;2023-02-22T16:07:06;100770.40;;;2.56
65765;BMP180;52915;53.718;19.946;2023-02-22T16:17:36;100777.60;;;2.30
65765;BMP180;52915;53.718;19.946;2023-02-22T16:22:58;100781.60;;;2.20
65765;BMP180;52915;53.718;19.946;2023-02-22T16:28:25;100786.80;;;2.12
65765;BMP180;52915;53.718;19.946;2023-02-22T16:33:28;100784.40;;;2.10
65765;BMP180;52915;53.718;19.946;2023-02-22T16:38:36;100792.20;;;2.10
65765;BMP180;52915;53.718;19.946;2023-02-22T16:43:42;100800.40;;;2.00
65765;BMP180;52915;53.718;19.946;2023-02-22T16:48:49;100806.80;;;2.00
65765;BMP180;52915;53.718;19.946;2023-02-22T16:53:54;100814.00;;;1.90
65765;BMP180;52915;53.718;19.946;2023-02-22T16:59:09;100814.20;;;1.90
65765;BMP180;52915;53.718;19.946;2023-02-22T17:04:17;100814.20;;;1.96
65765;BMP180;52915;53.718;19.946;2023-02-22T17:09:23;100812.40;;;2.00
65765;BMP180;52915;53.718;19.946;2023-02-22T17:14:32;100821.20;;;2.00
65765;BMP180;52915;53.718;19.946;2023-02-22T17:19:37;100822.80;;;2.06
65765;BMP180;52915;53.718;19.946;2023-02-22T17:25:21;100825.80;;;2.00
65765;BMP180;52915;53.718;19.946;2023-02-22T17:30:26;100817.80;;;1.90
65765;BMP180;52915;53.718;19.946;2023-02-22T17:35:57;100820.20;;;1.90
65765;BMP180;52915;53.718;19.946;2023-02-22T17:48:26;100833.60;;;1.90
65765;BMP180;52915;53.718;19.946;2023-02-22T17:54:20;100838.00;;;1.90
65765;BMP180;52915;53.718;19.946;2023-02-22T18:06:18;100838.20;;;1.90
65765;BMP180;52915;53.718;19.946;2023-02-22T18:12:17;100844.80;;;1.90
65765;BMP180;52915;53.718;19.946;2023-02-22T18:17:20;100844.80;;;1.90
65765;BMP180;52915;53.718;19.946;2023-02-22T18:22:52;100843.80;;;1.90
65765;BMP180;52915;53.718;19.946;2023-02-22T18:27:56;100845.60;;;1.90
65765;BMP180;52915;53.718;19.946;2023-02-22T18:33:03;100850.60;;;1.80
65765;BMP180;52915;53.718;19.946;2023-02-22T18:38:08;100849.00;;;1.60
65765;BMP180;52915;53.718;19.946;2023-02-22T18:50:13;100844.60;;;1.50
65765;BMP180;52915;53.718;19.946;2023-02-22T19:10:11;100835.00;;;1.70
65765;BMP180;52915;53.718;19.946;2023-02-22T19:15:16;100825.00;;;1.70
65765;BMP180;52915;53.718;19.946;2023-02-22T19:25:37;100833.00;;;1.78
65765;BMP180;52915;53.718;19.946;2023-02-22T19:30:44;100837.80;;;1.70
65765;BMP180;52915;53.718;19.946;2023-02-22T19:35:48;100832.80;;;1.70
65765;BMP180;52915;53.718;19.946;2023-02-22T20:01:29;100840.00;;;1.70
65765;BMP180;52915;53.718;19.946;2023-02-22T20:06:40;100836.60;;;1.70
65765;BMP180;52915;53.718;19.946;2023-02-22T20:11:47;100832.80;;;1.70
65765;BMP180;52915;53.718;19.946;2023-02-22T20:16:55;100841.20;;;1.58
65765;BMP180;52915;53.718;19.946;2023-02-22T20:22:00;100843.00;;;1.50
65765;BMP180;52915;53.718;19.946;2023-02-22T20:27:05;100841.40;;;1.40
65765;BMP180;52915;53.718;19.946;2023-02-22T20:32:36;100847.00;;;1.30
65765;BMP180;52915;53.718;19.946;2023-02-22T20:37:41;100845.80;;;1.36
65765;BMP180;52915;53.718;19.946;2023-02-22T20:42:46;100842.00;;;1.30
65765;BMP180;52915;53.718;19.946;2023-02-22T20:47:50;100840.80;;;1.30
65765;BMP180;52915;53.718;19.946;2023-02-22T21:08:33;100838.40;;;1.28
65765;BMP180;52915;53.718;19.946;2023-02-22T21:13:38;100843.80;;;1.20
65765;BMP180;52915;53.718;19.946;2023-02-22T21:18:43;100848.80;;;1.20
65765;BMP180;52915;53.718;19.946;2023-02-22T21:23:50;100846.80;;;1.10
65765;BMP180;52915;53.718;19.946;2023-02-22T21:37:13;100842.20;;;0.90
65765;BMP180;52915;53.718;19.946;2023-02-22T21:42:20;100845.20;;;0.80
65765;BMP180;52915;53.718;19.946;2023-02-22T22:02:05;100848.40;;;0.60
65765;BMP180;52915;53.718;19.946;2023-02-22T22:07:39;100842.40;;;0.50
65765;BMP180;52915;53.718;19.946;2023-02-22T22:12:46;100846.40;;;0.50
65765;BMP180;52915;53.718;19.946;2023-02-22T22:17:58;100848.20;;;0.42
65765;BMP180;52915;53.718;19.946;2023-02-22T22:23:08;100841.40;;;0.40
65765;BMP180;52915;53.718;19.946;2023-02-22T22:43:36;100842.60;;;0.30
65765;BMP180;52915;53.718;19.946;2023-02-22T22:48:42;100834.80;;;0.26
65765;BMP180;52915;53.718;19.946;2023-02-22T22:53:49;100838.40;;;0.20
65765;BMP180;52915;53.718;19.946;2023-02-22T23:06:00;100839.60;;;0.16
65765;BMP180;52915;53.718;19.946;2023-02-22T23:11:06;100839.40;;;0.10
65765;BMP180;52915;53.718;19.946;2023-02-22T23:16:11;100841.60;;;0.00
65765;BMP180;52915;53.718;19.946;2023-02-22T23:21:16;100846.20;;;0.00
65765;BMP180;52915;53.718;19.946;2023-02-22T23:47:54;100841.20;;;-0.30
65765;BMP180;52915;53.718;19.946;2023-02-22T23:52:59;100839.00;;;-0.40
65765;BMP180;52915;53.718;19.946;2023-02-22T23:58:06;100838.20;;;-0.40
